sensor_id;sensor_type;location;lat;lon;timestamp;pressure;altitude;pressure_sealevel;temperature;humidity
44457;BME280;30159;49.316;8.558;2023-05-27T00:02:15;101200.38;;;17.41;61.61
44457;BME280;30159;49.316;8.558;2023-05-27T00:04:42;101209.03;;;17.43;61.85
44457;BME280;30159;49.316;8.558;2023-05-27T00:07:09;101208.22;;;17.43;61.68
44457;BME280;30159;49.316;8.558;2023-05-27T00:09:35;101188.94;;;17.39;61.21
44457;BME280;30159;49.316;8.558;2023-05-27T00:12:03;101206.91;;;17.40;61.60
44457;BME280;30159;49.316;8.558;2023-05-27T00:14:30;101201.97;;;17.42;61.19
44457;BME280;30159;49.316;8.558;2023-05-27T00:16:57;101198.72;;;17.40;62.00
44457;BME280;30159;49.316;8.558;2023-05-27T00:19:24;101197.72;;;17.36;62.07
44457;BME280;30159;49.316;8.558;2023-05-27T00:21:51;101184.09;;;17.36;62.12
44457;BME280;30159;49.316;8.558;2023-05-27T00:24:18;101200.56;;;17.31;61.50
44457;BME280;30159;49.316;8.558;2023-05-27T00:26:45;101190.28;;;17.28;62.47
44457;BME280;30159;49.316;8.558;2023-05-27T00:29:13;101194.09;;;17.27;61.82
44457;BME280;30159;49.316;8.558;2023-05-27T00:31:40;101186.25;;;17.25;62.41
44457;BME280;30159;49.316;8.558;2023-05-27T00:34:06;101162.81;;;17.11;61.84
44457;BME280;30159;49.316;8.558;2023-05-27T00:36:33;101183.19;;;17.27;62.32
44457;BME280;30159;49.316;8.558;2023-05-27T00:39:01;101054.88;;;16.32;61.54
44457;BME280;30159;49.316;8.558;2023-05-27T00:41:27;101190.69;;;17.21;61.84
44457;BME280;30159;49.316;8.558;2023-05-27T00:43:55;101200.78;;;17.21;61.78
44457;BME280;30159;49.316;8.558;2023-05-27T00:46:24;101158.50;;;16.96;62.58
44457;BME280;30159;49.316;8.558;2023-05-27T00:48:50;101185.13;;;17.26;62.76
44457;BME280;30159;49.316;8.558;2023-05-27T00:51:17;101203.41;;;17.26;61.66
44457;BME280;30159;49.316;8.558;2023-05-27T00:53:43;101189.47;;;17.27;61.77
44457;BME280;30159;49.316;8.558;2023-05-27T00:56:11;101193.19;;;17.18;62.61
44457;BME280;30159;49.316;8.558;2023-05-27T00:58:41;101199.47;;;17.18;62.96
44457;BME280;30159;49.316;8.558;2023-05-27T01:01:09;101183.72;;;17.01;62.36
44457;BME280;30159;49.316;8.558;2023-05-27T01:03:38;101190.06;;;17.11;63.15
44457;BME280;30159;49.316;8.558;2023-05-27T01:06:14;101190.69;;;16.80;67.39
44457;BME280;30159;49.316;8.558;2023-05-27T01:08:48;101169.28;;;16.27;69.82
44457;BME280;30159;49.316;8.558;2023-05-27T01:11:21;101186.91;;;16.15;72.08
44457;BME280;30159;49.316;8.558;2023-05-27T01:13:52;101177.56;;;16.02;72.46
44457;BME280;30159;49.316;8.558;2023-05-27T01:16:23;101129.66;;;15.69;71.78
44457;BME280;30159;49.316;8.558;2023-05-27T01:18:53;101181.94;;;16.17;69.16
44457;BME280;30159;49.316;8.558;2023-05-27T01:21:21;101173.63;;;16.28;68.98
44457;BME280;30159;49.316;8.558;2023-05-27T01:23:51;101182.69;;;16.23;70.08
44457;BME280;30159;49.316;8.558;2023-05-27T01:26:17;101176.44;;;16.22;69.39
44457;BME280;30159;49.316;8.558;2023-05-27T01:28:44;101173.50;;;16.19;69.17
44457;BME280;30159;49.316;8.558;2023-05-27T01:31:13;101179.03;;;16.14;69.10
44457;BME280;30159;49.316;8.558;2023-05-27T01:33:48;101152.41;;;15.92;71.10
44457;BME280;30159;49.316;8.558;2023-05-27T01:36:17;101169.44;;;15.84;73.09
44457;BME280;30159;49.316;8.558;2023-05-27T01:38:47;101167.50;;;15.84;73.19
44457;BME280;30159;49.316;8.558;2023-05-27T01:41:17;101168.31;;;15.66;73.90
44457;BME280;30159;49.316;8.558;2023-05-27T01:43:45;101166.91;;;15.68;74.50
44457;BME280;30159;49.316;8.558;2023-05-27T01:46:11;101157.41;;;15.66;76.36
44457;BME280;30159;49.316;8.558;2023-05-27T01:48:38;101158.19;;;15.71;76.52
44457;BME280;30159;49.316;8.558;2023-05-27T01:51:04;101163.91;;;15.51;77.48
44457;BME280;30159;49.316;8.558;2023-05-27T01:53:31;101121.13;;;15.18;78.58
44457;BME280;30159;49.316;8.558;2023-05-27T01:55:58;101142.28;;;15.41;79.74
44457;BME280;30159;49.316;8.558;2023-05-27T01:58:26;101158.53;;;15.46;79.17
44457;BME280;30159;49.316;8.558;2023-05-27T02:00:52;101152.69;;;15.14;80.93
44457;BME280;30159;49.316;8.558;2023-05-27T02:03:19;101164.66;;;15.13;80.65
44457;BME280;30159;49.316;8.558;2023-05-27T02:05:45;101164.75;;;15.08;80.82
44457;BME280;30159;49.316;8.558;2023-05-27T02:08:12;101157.47;;;15.04;82.13
44457;BME280;30159;49.316;8.558;2023-05-27T02:10:39;101151.56;;;14.96;81.76
44457;BME280;30159;49.316;8.558;2023-05-27T02:13:05;101154.31;;;14.91;82.66
44457;BME280;30159;49.316;8.558;2023-05-27T02:15:33;101149.53;;;14.83;83.41
44457;BME280;30159;49.316;8.558;2023-05-27T02:18:00;101155.03;;;14.78;82.55
44457;BME280;30159;49.316;8.558;2023-05-27T02:20:26;101144.84;;;14.65;83.40
44457;BME280;30159;49.316;8.558;2023-05-27T02:22:54;101146.03;;;14.53;83.66
44457;BME280;30159;49.316;8.558;2023-05-27T02:25:20;101143.97;;;14.40;84.72
44457;BME280;30159;49.316;8.558;2023-05-27T02:27:47;101152.44;;;14.39;84.25
44457;BME280;30159;49.316;8.558;2023-05-27T02:30:15;101156.75;;;14.40;84.29
44457;BME280;30159;49.316;8.558;2023-05-27T02:32:43;101160.72;;;14.47;84.07
44457;BME280;30159;49.316;8.558;2023-05-27T02:35:12;101146.41;;;14.42;84.94
44457;BME280;30159;49.316;8.558;2023-05-27T02:37:39;101157.53;;;14.40;86.28
44457;BME280;30159;49.316;8.558;2023-05-27T02:40:07;101154.88;;;14.35;86.69
44457;BME280;30159;49.316;8.558;2023-05-27T02:42:34;101144.41;;;14.23;87.97
44457;BME280;30159;49.316;8.558;2023-05-27T02:45:01;100982.84;;;13.19;88.36
44457;BME280;30159;49.316;8.558;2023-05-27T02:47:27;101144.19;;;14.20;87.48
44457;BME280;30159;49.316;8.558;2023-05-27T02:49:55;101152.41;;;14.09;88.42
44457;BME280;30159;49.316;8.558;2023-05-27T02:52:22;101149.78;;;13.99;87.61
44457;BME280;30159;49.316;8.558;2023-05-27T02:54:48;101154.63;;;14.02;88.24
44457;BME280;30159;49.316;8.558;2023-05-27T02:57:15;101148.94;;;14.04;90.36
44457;BME280;30159;49.316;8.558;2023-05-27T02:59:41;101149.38;;;14.16;88.33
44457;BME280;30159;49.316;8.558;2023-05-27T03:02:08;101136.66;;;14.11;88.07
44457;BME280;30159;49.316;8.558;2023-05-27T03:04:35;101127.91;;;13.85;89.96
44457;BME280;30159;49.316;8.558;2023-05-27T03:07:03;101139.84;;;13.84;91.25
44457;BME280;30159;49.316;8.558;2023-05-27T03:09:30;101142.38;;;13.70;92.33
44457;BME280;30159;49.316;8.558;2023-05-27T03:11:56;101146.28;;;13.54;92.04
44457;BME280;30159;49.316;8.558;2023-05-27T03:14:23;101148.75;;;13.51;92.72
44457;BME280;30159;49.316;8.558;2023-05-27T03:16:49;101147.47;;;13.43;94.09
44457;BME280;30159;49.316;8.558;2023-05-27T03:19:16;101140.19;;;13.33;95.36
44457;BME280;30159;49.316;8.558;2023-05-27T03:21:43;101151.31;;;13.32;94.77
44457;BME280;30159;49.316;8.558;2023-05-27T03:24:11;101150.78;;;13.24;96.75
44457;BME280;30159;49.316;8.558;2023-05-27T03:26:38;101154.03;;;13.21;97.33
44457;BME280;30159;49.316;8.558;2023-05-27T03:29:05;101094.38;;;12.77;96.33
44457;BME280;30159;49.316;8.558;2023-05-27T03:31:31;101150.03;;;13.08;96.48
44457;BME280;30159;49.316;8.558;2023-05-27T03:33:58;101140.25;;;13.07;95.76
44457;BME280;30159;49.316;8.558;2023-05-27T03:36:25;101150.00;;;13.14;96.70
44457;BME280;30159;49.316;8.558;2023-05-27T03:38:51;101146.53;;;13.08;97.60
44457;BME280;30159;49.316;8.558;2023-05-27T03:41:19;101154.34;;;13.15;96.35
44457;BME280;30159;49.316;8.558;2023-05-27T03:43:46;101148.91;;;13.20;96.87
44457;BME280;30159;49.316;8.558;2023-05-27T03:46:12;101148.34;;;13.23;96.81
44457;BME280;30159;49.316;8.558;2023-05-27T03:48:39;101148.59;;;13.26;97.40
44457;BME280;30159;49.316;8.558;2023-05-27T03:51:05;101154.03;;;13.26;97.24
44457;BME280;30159;49.316;8.558;2023-05-27T03:53:32;101166.19;;;13.34;94.94
44457;BME280;30159;49.316;8.558;2023-05-27T03:55:58;101161.59;;;13.35;95.81
44457;BME280;30159;49.316;8.558;2023-05-27T03:58:26;101160.78;;;13.34;96.22
44457;BME280;30159;49.316;8.558;2023-05-27T04:00:53;101161.84;;;13.38;95.70
44457;BME280;30159;49.316;8.558;2023-05-27T04:03:20;101164.56;;;13.33;97.58
44457;BME280;30159;49.316;8.558;2023-05-27T04:05:46;101172.91;;;13.42;93.85
44457;BME280;30159;49.316;8.558;2023-05-27T04:08:13;101115.59;;;13.19;93.68
44457;BME280;30159;49.316;8.558;2023-05-27T04:10:39;101163.09;;;13.56;95.05
44457;BME280;30159;49.316;8.558;2023-05-27T04:13:06;101164.19;;;13.55;94.09
44457;BME280;30159;49.316;8.558;2023-05-27T04:15:34;101164.16;;;13.60;94.37
44457;BME280;30159;49.316;8.558;2023-05-27T04:18:01;101151.88;;;13.68;94.58
44457;BME280;30159;49.316;8.558;2023-05-27T04:20:34;101141.41;;;13.56;93.23
44457;BME280;30159;49.316;8.558;2023-05-27T04:23:00;101166.16;;;13.84;92.18
44457;BME280;30159;49.316;8.558;2023-05-27T04:25:27;101155.09;;;13.80;93.06
44457;BME280;30159;49.316;8.558;2023-05-27T04:27:53;101157.06;;;14.04;92.89
44457;BME280;30159;49.316;8.558;2023-05-27T04:30:20;101163.25;;;14.09;90.07
44457;BME280;30159;49.316;8.558;2023-05-27T04:32:49;101159.41;;;14.16;88.99
44457;BME280;30159;49.316;8.558;2023-05-27T04:35:15;101100.00;;;13.85;90.61
44457;BME280;30159;49.316;8.558;2023-05-27T04:37:43;101157.06;;;14.33;88.86
44457;BME280;30159;49.316;8.558;2023-05-27T04:40:11;101101.44;;;14.06;87.80
44457;BME280;30159;49.316;8.558;2023-05-27T04:42:38;101154.31;;;14.67;89.57
44457;BME280;30159;49.316;8.558;2023-05-27T04:45:05;101162.53;;;14.86;88.37
44457;BME280;30159;49.316;8.558;2023-05-27T04:47:33;101108.09;;;14.72;83.50
44457;BME280;30159;49.316;8.558;2023-05-27T04:50:04;101164.03;;;14.98;79.11
44457;BME280;30159;49.316;8.558;2023-05-27T04:52:31;101151.53;;;15.21;77.88
44457;BME280;30159;49.316;8.558;2023-05-27T04:55:02;101151.38;;;15.31;78.46
44457;BME280;30159;49.316;8.558;2023-05-27T04:57:29;101156.34;;;15.48;75.78
44457;BME280;30159;49.316;8.558;2023-05-27T04:59:55;101119.50;;;15.17;75.97
44457;BME280;30159;49.316;8.558;2023-05-27T05:02:43;101153.03;;;15.70;76.34
44457;BME280;30159;49.316;8.558;2023-05-27T05:05:14;101156.41;;;15.99;78.16
44457;BME280;30159;49.316;8.558;2023-05-27T05:07:41;101153.13;;;16.16;76.50
44457;BME280;30159;49.316;8.558;2023-05-27T05:10:09;101155.28;;;16.33;74.08
44457;BME280;30159;49.316;8.558;2023-05-27T05:12:36;101157.41;;;16.04;72.87
44457;BME280;30159;49.316;8.558;2023-05-27T05:15:05;101163.91;;;15.89;74.29
44457;BME280;30159;49.316;8.558;2023-05-27T05:17:32;101159.00;;;15.72;73.27
44457;BME280;30159;49.316;8.558;2023-05-27T05:19:58;101150.28;;;15.70;74.00
44457;BME280;30159;49.316;8.558;2023-05-27T05:22:26;101160.25;;;15.79;74.23
44457;BME280;30159;49.316;8.558;2023-05-27T05:24:54;101124.88;;;15.79;72.49
44457;BME280;30159;49.316;8.558;2023-05-27T05:27:20;101162.41;;;16.15;72.52
44457;BME280;30159;49.316;8.558;2023-05-27T05:29:47;101154.94;;;16.68;72.92
44457;BME280;30159;49.316;8.558;2023-05-27T05:32:13;101158.84;;;17.31;70.99
44457;BME280;30159;49.316;8.558;2023-05-27T05:34:40;101164.94;;;18.23;68.51
44457;BME280;30159;49.316;8.558;2023-05-27T05:37:06;101137.78;;;19.06;64.84
44457;BME280;30159;49.316;8.558;2023-05-27T05:39:34;101166.50;;;19.52;62.05
44457;BME280;30159;49.316;8.558;2023-05-27T05:42:01;101173.56;;;19.27;63.31
44457;BME280;30159;49.316;8.558;2023-05-27T05:44:28;101174.56;;;19.40;62.25
44457;BME280;30159;49.316;8.558;2023-05-27T05:46:54;101174.38;;;19.63;62.24
44457;BME280;30159;49.316;8.558;2023-05-27T05:49:21;101164.06;;;20.29;60.96
44457;BME280;30159;49.316;8.558;2023-05-27T05:51:48;101167.34;;;21.29;58.80
44457;BME280;30159;49.316;8.558;2023-05-27T05:54:14;101165.44;;;22.05;57.44
44457;BME280;30159;49.316;8.558;2023-05-27T05:56:42;101161.66;;;23.53;54.33
44457;BME280;30159;49.316;8.558;2023-05-27T05:59:09;101161.84;;;24.01;53.33
44457;BME280;30159;49.316;8.558;2023-05-27T06:01:35;101151.84;;;25.04;51.54
44457;BME280;30159;49.316;8.558;2023-05-27T06:04:02;101159.69;;;26.15;49.21
44457;BME280;30159;49.316;8.558;2023-05-27T06:06:29;101162.03;;;27.36;48.10
44457;BME280;30159;49.316;8.558;2023-05-27T06:08:56;101167.00;;;26.96;47.65
44457;BME280;30159;49.316;8.558;2023-05-27T06:11:22;101171.63;;;26.19;49.35
44457;BME280;30159;49.316;8.558;2023-05-27T06:13:50;101158.00;;;26.30;48.60
44457;BME280;30159;49.316;8.558;2023-05-27T06:16:17;101153.22;;;27.90;47.01
44457;BME280;30159;49.316;8.558;2023-05-27T06:18:43;101158.81;;;28.79;45.61
44457;BME280;30159;49.316;8.558;2023-05-27T06:21:11;101160.53;;;29.02;45.36
44457;BME280;30159;49.316;8.558;2023-05-27T06:23:37;101157.91;;;30.36;43.88
44457;BME280;30159;49.316;8.558;2023-05-27T06:26:04;101155.53;;;30.60;44.08
44457;BME280;30159;49.316;8.558;2023-05-27T06:28:30;101158.31;;;30.92;43.62
44457;BME280;30159;49.316;8.558;2023-05-27T06:30:58;101153.09;;;31.05;43.28
44457;BME280;30159;49.316;8.558;2023-05-27T06:33:25;101160.25;;;31.13;43.72
44457;BME280;30159;49.316;8.558;2023-05-27T06:35:52;101155.59;;;32.50;42.02
44457;BME280;30159;49.316;8.558;2023-05-27T06:38:18;101149.31;;;32.36;41.37
44457;BME280;30159;49.316;8.558;2023-05-27T06:40:45;101142.50;;;32.33;40.93
44457;BME280;30159;49.316;8.558;2023-05-27T06:43:11;101152.28;;;33.01;41.05
44457;BME280;30159;49.316;8.558;2023-05-27T06:45:38;101146.78;;;31.96;41.06
44457;BME280;30159;49.316;8.558;2023-05-27T06:48:06;101093.78;;;31.89;40.85
44457;BME280;30159;49.316;8.558;2023-05-27T06:50:32;101102.94;;;31.97;40.43
44457;BME280;30159;49.316;8.558;2023-05-27T06:52:59;101147.16;;;31.91;40.79
44457;BME280;30159;49.316;8.558;2023-05-27T06:55:25;101146.00;;;32.51;40.27
44457;BME280;30159;49.316;8.558;2023-05-27T06:57:52;101149.44;;;32.18;40.15
44457;BME280;30159;49.316;8.558;2023-05-27T07:00:19;101154.19;;;31.47;42.04
44457;BME280;30159;49.316;8.558;2023-05-27T07:02:45;101142.47;;;32.85;39.86
44457;BME280;30159;49.316;8.558;2023-05-27T07:05:13;101146.44;;;33.60;38.94
44457;BME280;30159;49.316;8.558;2023-05-27T07:07:40;101144.69;;;33.73;38.60
44457;BME280;30159;49.316;8.558;2023-05-27T07:10:07;101144.00;;;34.20;38.66
44457;BME280;30159;49.316;8.558;2023-05-27T07:12:34;101137.16;;;33.94;38.88
44457;BME280;30159;49.316;8.558;2023-05-27T07:15:00;101078.59;;;32.42;39.20
44457;BME280;30159;49.316;8.558;2023-05-27T07:17:27;101138.72;;;32.12;40.41
44457;BME280;30159;49.316;8.558;2023-05-27T07:19:53;101128.03;;;33.28;39.02
44457;BME280;30159;49.316;8.558;2023-05-27T07:22:21;101138.41;;;33.31;37.05
44457;BME280;30159;49.316;8.558;2023-05-27T07:24:48;101140.78;;;30.81;36.58
44457;BME280;30159;49.316;8.558;2023-05-27T07:27:14;101139.09;;;31.34;38.68
44457;BME280;30159;49.316;8.558;2023-05-27T07:29:41;101135.75;;;31.71;36.31
44457;BME280;30159;49.316;8.558;2023-05-27T07:32:08;101135.63;;;30.29;38.18
44457;BME280;30159;49.316;8.558;2023-05-27T07:34:34;101137.59;;;30.11;39.11
44457;BME280;30159;49.316;8.558;2023-05-27T07:37:01;101136.94;;;28.71;39.69
44457;BME280;30159;49.316;8.558;2023-05-27T07:39:29;101135.84;;;28.86;39.50
44457;BME280;30159;49.316;8.558;2023-05-27T07:41:55;101125.28;;;28.10;40.61
44457;BME280;30159;49.316;8.558;2023-05-27T07:44:22;101125.28;;;30.37;39.87
44457;BME280;30159;49.316;8.558;2023-05-27T07:46:49;101129.59;;;29.95;38.81
44457;BME280;30159;49.316;8.558;2023-05-27T07:49:15;101127.59;;;29.04;39.00
44457;BME280;30159;49.316;8.558;2023-05-27T07:51:42;101125.75;;;27.48;40.31
44457;BME280;30159;49.316;8.558;2023-05-27T07:54:08;101119.09;;;29.45;39.04
44457;BME280;30159;49.316;8.558;2023-05-27T07:56:36;101129.34;;;28.20;39.25
44457;BME280;30159;49.316;8.558;2023-05-27T07:59:03;101112.31;;;27.46;40.50
44457;BME280;30159;49.316;8.558;2023-05-27T08:01:29;101117.44;;;28.19;41.64
44457;BME280;30159;49.316;8.558;2023-05-27T08:03:57;101104.91;;;31.15;37.99
44457;BME280;30159;49.316;8.558;2023-05-27T08:06:24;101098.97;;;30.95;37.79
44457;BME280;30159;49.316;8.558;2023-05-27T08:08:51;101099.84;;;30.63;38.03
44457;BME280;30159;49.316;8.558;2023-05-27T08:11:17;101058.84;;;27.83;40.93
44457;BME280;30159;49.316;8.558;2023-05-27T08:13:46;101109.47;;;25.90;44.42
44457;BME280;30159;49.316;8.558;2023-05-27T08:16:13;101060.31;;;24.19;46.12
44457;BME280;30159;49.316;8.558;2023-05-27T08:18:39;101099.41;;;23.65;46.94
44457;BME280;30159;49.316;8.558;2023-05-27T08:21:06;101085.44;;;23.58;47.38
44457;BME280;30159;49.316;8.558;2023-05-27T08:23:32;101101.72;;;23.63;49.88
44457;BME280;30159;49.316;8.558;2023-05-27T08:25:59;101089.50;;;23.07;47.98
44457;BME280;30159;49.316;8.558;2023-05-27T08:28:25;101096.06;;;22.66;50.00
44457;BME280;30159;49.316;8.558;2023-05-27T08:30:53;101099.72;;;22.82;49.60
44457;BME280;30159;49.316;8.558;2023-05-27T08:33:20;101080.78;;;22.19;50.78
44457;BME280;30159;49.316;8.558;2023-05-27T08:35:48;101090.78;;;22.61;49.55
44457;BME280;30159;49.316;8.558;2023-05-27T08:38:15;101096.75;;;22.75;50.22
44457;BME280;30159;49.316;8.558;2023-05-27T08:40:41;101085.03;;;23.03;50.42
44457;BME280;30159;49.316;8.558;2023-05-27T08:43:08;101078.94;;;23.09;50.26
44457;BME280;30159;49.316;8.558;2023-05-27T08:45:34;101080.44;;;23.07;49.78
44457;BME280;30159;49.316;8.558;2023-05-27T08:48:02;101082.75;;;22.80;50.08
44457;BME280;30159;49.316;8.558;2023-05-27T08:50:30;101070.84;;;23.01;50.83
44457;BME280;30159;49.316;8.558;2023-05-27T08:52:57;101063.34;;;23.13;50.99
44457;BME280;30159;49.316;8.558;2023-05-27T08:55:24;101069.25;;;23.56;49.78
44457;BME280;30159;49.316;8.558;2023-05-27T08:57:54;101067.09;;;23.21;49.93
44457;BME280;30159;49.316;8.558;2023-05-27T09:00:22;100950.56;;;22.48;50.61
44457;BME280;30159;49.316;8.558;2023-05-27T09:02:49;101064.38;;;23.09;50.16
44457;BME280;30159;49.316;8.558;2023-05-27T09:05:22;101050.28;;;22.98;50.44
44457;BME280;30159;49.316;8.558;2023-05-27T09:07:49;101056.72;;;22.90;50.91
44457;BME280;30159;49.316;8.558;2023-05-27T09:10:15;101049.72;;;23.05;51.67
44457;BME280;30159;49.316;8.558;2023-05-27T09:12:43;101054.78;;;22.78;51.28
44457;BME280;30159;49.316;8.558;2023-05-27T09:15:11;101047.34;;;23.03;51.26
44457;BME280;30159;49.316;8.558;2023-05-27T09:17:40;100911.78;;;22.25;50.39
44457;BME280;30159;49.316;8.558;2023-05-27T09:20:08;101047.91;;;22.10;51.81
44457;BME280;30159;49.316;8.558;2023-05-27T09:22:38;101045.25;;;22.14;53.24
44457;BME280;30159;49.316;8.558;2023-05-27T09:25:06;101050.19;;;21.96;53.30
44457;BME280;30159;49.316;8.558;2023-05-27T09:27:32;101034.19;;;22.23;53.15
44457;BME280;30159;49.316;8.558;2023-05-27T09:30:07;101036.91;;;22.72;52.63
44457;BME280;30159;49.316;8.558;2023-05-27T09:32:33;101038.00;;;22.96;52.52
44457;BME280;30159;49.316;8.558;2023-05-27T09:35:01;101038.50;;;22.85;51.32
44457;BME280;30159;49.316;8.558;2023-05-27T09:37:28;101041.28;;;22.61;52.33
44457;BME280;30159;49.316;8.558;2023-05-27T09:39:58;101030.75;;;22.75;52.64
44457;BME280;30159;49.316;8.558;2023-05-27T09:42:25;100991.72;;;22.45;52.66
44457;BME280;30159;49.316;8.558;2023-05-27T09:44:53;101041.38;;;22.77;52.47
44457;BME280;30159;49.316;8.558;2023-05-27T09:47:21;101028.00;;;22.63;52.40
44457;BME280;30159;49.316;8.558;2023-05-27T09:49:49;101036.00;;;22.68;52.95
44457;BME280;30159;49.316;8.558;2023-05-27T09:52:19;101033.91;;;23.02;52.19
44457;BME280;30159;49.316;8.558;2023-05-27T09:54:48;100985.66;;;22.92;52.99
44457;BME280;30159;49.316;8.558;2023-05-27T09:57:16;101019.31;;;23.42;52.91
44457;BME280;30159;49.316;8.558;2023-05-27T09:59:45;101018.63;;;23.61;52.00
44457;BME280;30159;49.316;8.558;2023-05-27T10:02:14;101024.31;;;23.68;51.27
44457;BME280;30159;49.316;8.558;2023-05-27T10:04:43;101014.03;;;23.65;51.02
44457;BME280;30159;49.316;8.558;2023-05-27T10:07:10;101011.78;;;23.26;51.54
44457;BME280;30159;49.316;8.558;2023-05-27T10:09:39;100977.72;;;22.90;52.29
44457;BME280;30159;49.316;8.558;2023-05-27T10:12:05;101007.75;;;22.96;51.84
44457;BME280;30159;49.316;8.558;2023-05-27T10:14:34;101003.44;;;22.82;53.15
44457;BME280;30159;49.316;8.558;2023-05-27T10:17:01;101006.41;;;22.77;52.01
44457;BME280;30159;49.316;8.558;2023-05-27T10:19:27;100997.28;;;22.61;54.13
44457;BME280;30159;49.316;8.558;2023-05-27T10:21:54;101003.66;;;22.89;53.13
44457;BME280;30159;49.316;8.558;2023-05-27T10:24:31;101003.72;;;23.18;52.43
44457;BME280;30159;49.316;8.558;2023-05-27T10:27:00;101003.19;;;23.00;52.02
44457;BME280;30159;49.316;8.558;2023-05-27T10:29:36;101005.38;;;22.94;52.30
44457;BME280;30159;49.316;8.558;2023-05-27T10:32:04;100995.00;;;22.75;51.96
44457;BME280;30159;49.316;8.558;2023-05-27T10:34:34;100986.03;;;22.78;53.22
44457;BME280;30159;49.316;8.558;2023-05-27T10:37:01;100989.09;;;23.01;53.02
44457;BME280;30159;49.316;8.558;2023-05-27T10:39:27;100962.41;;;22.77;52.51
44457;BME280;30159;49.316;8.558;2023-05-27T10:41:56;101000.91;;;23.02;52.55
44457;BME280;30159;49.316;8.558;2023-05-27T10:44:26;100981.84;;;22.97;52.24
44457;BME280;30159;49.316;8.558;2023-05-27T10:47:03;100979.56;;;22.86;52.19
44457;BME280;30159;49.316;8.558;2023-05-27T10:49:33;100971.78;;;23.01;51.84
44457;BME280;30159;49.316;8.558;2023-05-27T10:52:06;100992.38;;;23.35;52.09
44457;BME280;30159;49.316;8.558;2023-05-27T10:54:36;100985.22;;;23.18;52.33
44457;BME280;30159;49.316;8.558;2023-05-27T10:57:03;100951.22;;;22.98;52.40
44457;BME280;30159;49.316;8.558;2023-05-27T10:59:39;100972.38;;;23.22;52.05
44457;BME280;30159;49.316;8.558;2023-05-27T11:02:07;100975.31;;;22.89;52.22
44457;BME280;30159;49.316;8.558;2023-05-27T11:04:34;100965.50;;;23.16;51.82
44457;BME280;30159;49.316;8.558;2023-05-27T11:07:01;100961.78;;;23.08;52.21
44457;BME280;30159;49.316;8.558;2023-05-27T11:09:28;100965.13;;;23.02;50.83
44457;BME280;30159;49.316;8.558;2023-05-27T11:11:55;100952.28;;;23.06;51.26
44457;BME280;30159;49.316;8.558;2023-05-27T11:14:23;100955.91;;;23.10;50.79
44457;BME280;30159;49.316;8.558;2023-05-27T11:16:50;100968.06;;;23.09;51.12
44457;BME280;30159;49.316;8.558;2023-05-27T11:19:19;100967.75;;;23.26;50.37
44457;BME280;30159;49.316;8.558;2023-05-27T11:21:47;100951.66;;;23.12;49.44
44457;BME280;30159;49.316;8.558;2023-05-27T11:24:14;100948.13;;;23.28;48.70
44457;BME280;30159;49.316;8.558;2023-05-27T11:26:42;100945.13;;;23.33;48.47
44457;BME280;30159;49.316;8.558;2023-05-27T11:29:09;100948.09;;;23.12;49.42
44457;BME280;30159;49.316;8.558;2023-05-27T11:31:36;100942.56;;;23.24;50.53
44457;BME280;30159;49.316;8.558;2023-05-27T11:34:11;100933.59;;;23.27;48.62
44457;BME280;30159;49.316;8.558;2023-05-27T11:36:40;100952.59;;;23.32;49.45
44457;BME280;30159;49.316;8.558;2023-05-27T11:39:11;100938.25;;;23.11;49.72
44457;BME280;30159;49.316;8.558;2023-05-27T11:41:48;100934.00;;;23.13;50.05
44457;BME280;30159;49.316;8.558;2023-05-27T11:44:15;100931.63;;;23.28;51.76
44457;BME280;30159;49.316;8.558;2023-05-27T11:46:44;100929.16;;;23.39;50.38
44457;BME280;30159;49.316;8.558;2023-05-27T11:49:11;100921.44;;;23.44;49.58
44457;BME280;30159;49.316;8.558;2023-05-27T11:51:40;100906.50;;;23.29;50.10
44457;BME280;30159;49.316;8.558;2023-05-27T11:54:07;100916.72;;;23.29;50.53
44457;BME280;30159;49.316;8.558;2023-05-27T11:56:41;100921.94;;;23.18;50.40
44457;BME280;30159;49.316;8.558;2023-05-27T11:59:08;100913.59;;;23.30;50.11
44457;BME280;30159;49.316;8.558;2023-05-27T12:01:34;100909.25;;;23.29;49.63
44457;BME280;30159;49.316;8.558;2023-05-27T12:04:01;100908.09;;;23.30;50.45
44457;BME280;30159;49.316;8.558;2023-05-27T12:06:28;100895.69;;;23.37;50.39
44457;BME280;30159;49.316;8.558;2023-05-27T12:08:58;100886.69;;;23.40;50.39
44457;BME280;30159;49.316;8.558;2023-05-27T12:11:24;100881.47;;;23.50;50.37
44457;BME280;30159;49.316;8.558;2023-05-27T12:13:53;100878.09;;;23.57;50.10
44457;BME280;30159;49.316;8.558;2023-05-27T12:16:20;100888.50;;;23.80;49.47
44457;BME280;30159;49.316;8.558;2023-05-27T12:18:46;100872.75;;;23.64;49.41
44457;BME280;30159;49.316;8.558;2023-05-27T12:21:14;100874.19;;;23.58;49.93
44457;BME280;30159;49.316;8.558;2023-05-27T12:23:41;100877.03;;;23.77;49.21
44457;BME280;30159;49.316;8.558;2023-05-27T12:26:12;100881.09;;;23.68;47.64
44457;BME280;30159;49.316;8.558;2023-05-27T12:28:39;100874.53;;;23.56;48.20
44457;BME280;30159;49.316;8.558;2023-05-27T12:31:06;100866.97;;;23.69;49.40
44457;BME280;30159;49.316;8.558;2023-05-27T12:33:33;100863.59;;;23.92;48.50
44457;BME280;30159;49.316;8.558;2023-05-27T12:36:00;100872.03;;;23.67;47.72
44457;BME280;30159;49.316;8.558;2023-05-27T12:38:27;100865.81;;;23.70;48.73
44457;BME280;30159;49.316;8.558;2023-05-27T12:40:53;100867.69;;;23.82;48.90
44457;BME280;30159;49.316;8.558;2023-05-27T12:43:22;100862.69;;;23.72;48.92
44457;BME280;30159;49.316;8.558;2023-05-27T12:45:49;100859.97;;;23.56;48.94
44457;BME280;30159;49.316;8.558;2023-05-27T12:48:16;100851.69;;;23.72;49.14
44457;BME280;30159;49.316;8.558;2023-05-27T12:50:43;100850.81;;;23.84;48.99
44457;BME280;30159;49.316;8.558;2023-05-27T12:53:10;100821.66;;;23.83;49.38